sensor_id;sensor_type;location;lat;lon;timestamp;pressure;altitude;pressure_sealevel;temperature
65765;BMP180;52915;53.718;19.946;2023-03-01T00:03:55;101602.00;;;-0.70
65765;BMP180;52915;53.718;19.946;2023-03-01T00:09:00;101603.40;;;-0.70
65765;BMP180;52915;53.718;19.946;2023-03-01T00:14:04;101601.40;;;-0.80
65765;BMP180;52915;53.718;19.946;2023-03-01T00:19:19;101587.40;;;-0.84
65765;BMP180;52915;53.718;19.946;2023-03-01T00:24:25;101586.00;;;-0.70
65765;BMP180;52915;53.718;19.946;2023-03-01T00:29:29;101587.40;;;-0.44
65765;BMP180;52915;53.718;19.946;2023-03-01T00:34:32;101591.60;;;-0.30
65765;BMP180;52915;53.718;19.946;2023-03-01T00:39:36;101573.80;;;-0.24
65765;BMP180;52915;53.718;19.946;2023-03-01T00:44:40;101575.20;;;-0.40
65765;BMP180;52915;53.718;19.946;2023-03-01T00:49:43;101562.00;;;-0.48
65765;BMP180;52915;53.718;19.946;2023-03-01T01:02:08;101578.00;;;-0.50
65765;BMP180;52915;53.718;19.946;2023-03-01T01:07:13;101573.60;;;-0.50
65765;BMP180;52915;53.718;19.946;2023-03-01T01:16:46;101575.80;;;0.00
65765;BMP180;52915;53.718;19.946;2023-03-01T01:21:50;101573.60;;;0.00
65765;BMP180;52915;53.718;19.946;2023-03-01T01:27:06;101570.60;;;-0.10
65765;BMP180;52915;53.718;19.946;2023-03-01T01:32:11;101574.80;;;-0.30
65765;BMP180;52915;53.718;19.946;2023-03-01T02:00:13;101539.80;;;-0.64
65765;BMP180;52915;53.718;19.946;2023-03-01T02:05:33;101527.60;;;-0.70
65765;BMP180;52915;53.718;19.946;2023-03-01T02:10:39;101515.80;;;-0.60
65765;BMP180;52915;53.718;19.946;2023-03-01T02:15:43;101509.80;;;-0.40
65765;BMP180;52915;53.718;19.946;2023-03-01T02:26:41;101519.00;;;-0.50
65765;BMP180;52915;53.718;19.946;2023-03-01T02:31:46;101535.60;;;-0.50
65765;BMP180;52915;53.718;19.946;2023-03-01T02:42:04;101534.20;;;-0.44
65765;BMP180;52915;53.718;19.946;2023-03-01T02:47:09;101536.00;;;-0.40
65765;BMP180;52915;53.718;19.946;2023-03-01T02:58:14;101502.60;;;-0.26
65765;BMP180;52915;53.718;19.946;2023-03-01T03:03:21;101497.20;;;0.00
65765;BMP180;52915;53.718;19.946;2023-03-01T03:08:25;101495.80;;;0.10
65765;BMP180;52915;53.718;19.946;2023-03-01T03:24:45;101471.40;;;-0.10
65765;BMP180;52915;53.718;19.946;2023-03-01T03:29:53;101474.40;;;-0.10
65765;BMP180;52915;53.718;19.946;2023-03-01T03:34:56;101467.00;;;0.20
65765;BMP180;52915;53.718;19.946;2023-03-01T03:44:28;101461.20;;;0.52
65765;BMP180;52915;53.718;19.946;2023-03-01T03:49:33;101454.20;;;0.50
65765;BMP180;52915;53.718;19.946;2023-03-01T03:54:43;101457.00;;;0.30
65765;BMP180;52915;53.718;19.946;2023-03-01T03:59:46;101457.20;;;0.20
65765;BMP180;52915;53.718;19.946;2023-03-01T04:04:56;101450.80;;;0.20
65765;BMP180;52915;53.718;19.946;2023-03-01T04:10:04;101450.40;;;0.20
65765;BMP180;52915;53.718;19.946;2023-03-01T04:15:12;101452.80;;;0.40
65765;BMP180;52915;53.718;19.946;2023-03-01T04:20:21;101449.80;;;0.30
65765;BMP180;52915;53.718;19.946;2023-03-01T04:25:31;101450.40;;;0.20
65765;BMP180;52915;53.718;19.946;2023-03-01T04:37:37;101451.40;;;0.40
65765;BMP180;52915;53.718;19.946;2023-03-01T04:43:37;101455.60;;;0.60
65765;BMP180;52915;53.718;19.946;2023-03-01T04:48:43;101450.40;;;0.70
65765;BMP180;52915;53.718;19.946;2023-03-01T04:53:47;101448.00;;;0.58
65765;BMP180;52915;53.718;19.946;2023-03-01T04:58:53;101443.40;;;0.40
65765;BMP180;52915;53.718;19.946;2023-03-01T05:03:57;101435.80;;;0.30
65765;BMP180;52915;53.718;19.946;2023-03-01T05:09:06;101437.20;;;0.28
65765;BMP180;52915;53.718;19.946;2023-03-01T05:14:11;101435.00;;;0.20
65765;BMP180;52915;53.718;19.946;2023-03-01T05:19:15;101426.80;;;0.30
65765;BMP180;52915;53.718;19.946;2023-03-01T05:24:19;101423.00;;;0.50
65765;BMP180;52915;53.718;19.946;2023-03-01T05:29:32;101411.80;;;0.50
65765;BMP180;52915;53.718;19.946;2023-03-01T05:34:40;101422.80;;;0.40
65765;BMP180;52915;53.718;19.946;2023-03-01T05:39:47;101420.60;;;0.40
65765;BMP180;52915;53.718;19.946;2023-03-01T05:44:55;101420.20;;;0.32
65765;BMP180;52915;53.718;19.946;2023-03-01T05:50:45;101419.80;;;0.50
65765;BMP180;52915;53.718;19.946;2023-03-01T05:55:52;101422.40;;;0.82
65765;BMP180;52915;53.718;19.946;2023-03-01T06:00:55;101421.00;;;0.80
65765;BMP180;52915;53.718;19.946;2023-03-01T06:05:59;101427.60;;;0.60
65765;BMP180;52915;53.718;19.946;2023-03-01T06:11:03;101425.20;;;0.50
65765;BMP180;52915;53.718;19.946;2023-03-01T06:16:09;101438.80;;;0.50
65765;BMP180;52915;53.718;19.946;2023-03-01T06:28:03;101429.80;;;0.76
65765;BMP180;52915;53.718;19.946;2023-03-01T06:40:31;101438.60;;;0.80
65765;BMP180;52915;53.718;19.946;2023-03-01T06:59:33;101426.80;;;1.20
65765;BMP180;52915;53.718;19.946;2023-03-01T07:09:23;101475.00;;;1.20
65765;BMP180;52915;53.718;19.946;2023-03-01T07:14:27;101476.00;;;1.20
65765;BMP180;52915;53.718;19.946;2023-03-01T07:19:40;101475.60;;;1.42
65765;BMP180;52915;53.718;19.946;2023-03-01T07:24:44;101472.40;;;1.60
65765;BMP180;52915;53.718;19.946;2023-03-01T07:29:47;101466.60;;;1.62
65765;BMP180;52915;53.718;19.946;2023-03-01T07:34:51;101467.20;;;1.70
65765;BMP180;52915;53.718;19.946;2023-03-01T07:40:01;101459.80;;;2.00
65765;BMP180;52915;53.718;19.946;2023-03-01T07:45:06;101459.00;;;2.60
65765;BMP180;52915;53.718;19.946;2023-03-01T07:50:22;101456.40;;;2.90
65765;BMP180;52915;53.718;19.946;2023-03-01T07:55:26;101445.40;;;3.46
65765;BMP180;52915;53.718;19.946;2023-03-01T08:00:31;101454.40;;;4.00
65765;BMP180;52915;53.718;19.946;2023-03-01T08:05:34;101448.00;;;4.40
65765;BMP180;52915;53.718;19.946;2023-03-01T08:11:05;101444.80;;;4.98
65765;BMP180;52915;53.718;19.946;2023-03-01T08:16:15;101449.80;;;5.40
65765;BMP180;52915;53.718;19.946;2023-03-01T08:21:19;101447.40;;;5.40
65765;BMP180;52915;53.718;19.946;2023-03-01T08:26:23;101444.60;;;5.40
65765;BMP180;52915;53.718;19.946;2023-03-01T08:31:37;101443.40;;;5.60
65765;BMP180;52915;53.718;19.946;2023-03-01T08:36:44;101440.00;;;5.70
65765;BMP180;52915;53.718;19.946;2023-03-01T08:41:48;101440.00;;;5.70
65765;BMP180;52915;53.718;19.946;2023-03-01T08:54:17;101427.80;;;6.60
65765;BMP180;52915;53.718;19.946;2023-03-01T08:59:21;101409.60;;;6.70
65765;BMP180;52915;53.718;19.946;2023-03-01T09:05:17;101394.40;;;6.78
65765;BMP180;52915;53.718;19.946;2023-03-01T09:10:22;101405.60;;;7.30
65765;BMP180;52915;53.718;19.946;2023-03-01T09:15:27;101423.20;;;7.60
65765;BMP180;52915;53.718;19.946;2023-03-01T09:20:32;101421.00;;;8.00
65765;BMP180;52915;53.718;19.946;2023-03-01T09:25:39;101405.40;;;8.60
65765;BMP180;52915;53.718;19.946;2023-03-01T09:30:42;101419.80;;;8.90
65765;BMP180;52915;53.718;19.946;2023-03-01T09:36:36;101415.20;;;8.50
65765;BMP180;52915;53.718;19.946;2023-03-01T09:42:00;101428.60;;;8.30
65765;BMP180;52915;53.718;19.946;2023-03-01T09:47:17;101434.00;;;7.92
65765;BMP180;52915;53.718;19.946;2023-03-01T09:52:37;101429.00;;;7.80
65765;BMP180;52915;53.718;19.946;2023-03-01T10:10:01;101415.40;;;8.66
65765;BMP180;52915;53.718;19.946;2023-03-01T10:15:16;101413.40;;;8.90
65765;BMP180;52915;53.718;19.946;2023-03-01T10:20:41;101406.80;;;9.50
65765;BMP180;52915;53.718;19.946;2023-03-01T10:26:01;101400.20;;;9.88
65765;BMP180;52915;53.718;19.946;2023-03-01T10:37:20;101402.60;;;9.46
65765;BMP180;52915;53.718;19.946;2023-03-01T10:42:47;101406.60;;;9.80
65765;BMP180;52915;53.718;19.946;2023-03-01T10:48:19;101400.40;;;10.30
65765;BMP180;52915;53.718;19.946;2023-03-01T10:53:49;101401.60;;;10.34
65765;BMP180;52915;53.718;19.946;2023-03-01T10:59:01;101402.00;;;10.74
65765;BMP180;52915;53.718;19.946;2023-03-01T11:09:22;101395.20;;;11.30
65765;BMP180;52915;53.718;19.946;2023-03-01T11:14:35;101395.40;;;11.30
65765;BMP180;52915;53.718;19.946;2023-03-01T11:19:39;101390.80;;;11.36
65765;BMP180;52915;53.718;19.946;2023-03-01T11:24:53;101390.00;;;11.30
65765;BMP180;52915;53.718;19.946;2023-03-01T11:30:30;101382.20;;;11.50
65765;BMP180;52915;53.718;19.946;2023-03-01T12:10:15;101376.40;;;12.50
65765;BMP180;52915;53.718;19.946;2023-03-01T12:21:57;101379.20;;;12.40
65765;BMP180;52915;53.718;19.946;2023-03-01T12:38:49;101377.60;;;13.28
65765;BMP180;52915;53.718;19.946;2023-03-01T12:55:41;101368.40;;;13.40
65765;BMP180;52915;53.718;19.946;2023-03-01T13:01:09;101363.00;;;13.20
65765;BMP180;52915;53.718;19.946;2023-03-01T13:06:39;101356.40;;;13.06
65765;BMP180;52915;53.718;19.946;2023-03-01T13:11:46;101353.20;;;13.20
65765;BMP180;52915;53.718;19.946;2023-03-01T13:16:52;101346.80;;;13.60
65765;BMP180;52915;53.718;19.946;2023-03-01T13:39:27;101341.60;;;18.10
65765;BMP180;52915;53.718;19.946;2023-03-01T13:44:43;101313.00;;;21.94
65765;BMP180;52915;53.718;19.946;2023-03-01T13:50:25;101260.60;;;25.38
65765;BMP180;52915;53.718;19.946;2023-03-01T13:55:42;101258.20;;;25.92
65765;BMP180;52915;53.718;19.946;2023-03-01T14:07:23;101265.60;;;28.50
65765;BMP180;52915;53.718;19.946;2023-03-01T14:18:27;101250.20;;;29.10
65765;BMP180;52915;53.718;19.946;2023-03-01T14:30:58;101227.00;;;29.84
65765;BMP180;52915;53.718;19.946;2023-03-01T14:37:09;101239.20;;;30.46
65765;BMP180;52915;53.718;19.946;2023-03-01T14:42:38;101244.40;;;30.70
65765;BMP180;52915;53.718;19.946;2023-03-01T14:47:45;101241.80;;;29.92
65765;BMP180;52915;53.718;19.946;2023-03-01T14:59:35;101255.00;;;29.40
65765;BMP180;52915;53.718;19.946;2023-03-01T15:05:05;101263.80;;;28.70
65765;BMP180;52915;53.718;19.946;2023-03-01T15:17:01;101259.40;;;24.84
65765;BMP180;52915;53.718;19.946;2023-03-01T15:22:15;101258.60;;;24.80
65765;BMP180;52915;53.718;19.946;2023-03-01T15:34:32;101296.80;;;16.48
65765;BMP180;52915;53.718;19.946;2023-03-01T15:50:57;101292.60;;;10.70
65765;BMP180;52915;53.718;19.946;2023-03-01T15:56:31;101291.40;;;10.30
65765;BMP180;52915;53.718;19.946;2023-03-01T16:02:08;101290.20;;;9.50
65765;BMP180;52915;53.718;19.946;2023-03-01T16:07:14;101297.60;;;8.80
65765;BMP180;52915;53.718;19.946;2023-03-01T16:12:18;101294.60;;;8.28
65765;BMP180;52915;53.718;19.946;2023-03-01T16:17:24;101297.40;;;7.76
65765;BMP180;52915;53.718;19.946;2023-03-01T16:22:29;101292.80;;;7.20
65765;BMP180;52915;53.718;19.946;2023-03-01T16:27:33;101288.00;;;6.80
65765;BMP180;52915;53.718;19.946;2023-03-01T16:32:41;101292.60;;;6.50
65765;BMP180;52915;53.718;19.946;2023-03-01T16:37:46;101301.00;;;6.30
65765;BMP180;52915;53.718;19.946;2023-03-01T16:42:51;101311.00;;;6.10
65765;BMP180;52915;53.718;19.946;2023-03-01T16:47:54;101311.60;;;5.80
65765;BMP180;52915;53.718;19.946;2023-03-01T16:52:58;101322.00;;;5.60
65765;BMP180;52915;53.718;19.946;2023-03-01T16:58:27;101310.80;;;5.40
65765;BMP180;52915;53.718;19.946;2023-03-01T17:09:22;101313.00;;;4.94
65765;BMP180;52915;53.718;19.946;2023-03-01T17:14:26;101307.80;;;4.80
65765;BMP180;52915;53.718;19.946;2023-03-01T17:19:29;101311.80;;;4.70
65765;BMP180;52915;53.718;19.946;2023-03-01T17:24:39;101308.00;;;4.60
65765;BMP180;52915;53.718;19.946;2023-03-01T17:29:43;101299.00;;;4.40
65765;BMP180;52915;53.718;19.946;2023-03-01T17:49:03;101291.20;;;3.78
65765;BMP180;52915;53.718;19.946;2023-03-01T17:58:32;101300.00;;;3.42
65765;BMP180;52915;53.718;19.946;2023-03-01T18:03:36;101303.20;;;3.30
65765;BMP180;52915;53.718;19.946;2023-03-01T18:08:52;101305.20;;;3.30
65765;BMP180;52915;53.718;19.946;2023-03-01T18:13:57;101305.60;;;3.42
65765;BMP180;52915;53.718;19.946;2023-03-01T18:19:02;101313.60;;;3.56
65765;BMP180;52915;53.718;19.946;2023-03-01T18:31:23;101308.00;;;3.20
65765;BMP180;52915;53.718;19.946;2023-03-01T18:36:31;101305.20;;;3.00
65765;BMP180;52915;53.718;19.946;2023-03-01T18:41:36;101305.60;;;2.90
65765;BMP180;52915;53.718;19.946;2023-03-01T18:46:41;101307.60;;;2.80
65765;BMP180;52915;53.718;19.946;2023-03-01T18:51:49;101312.60;;;2.90
65765;BMP180;52915;53.718;19.946;2023-03-01T19:14:50;101312.00;;;3.08
65765;BMP180;52915;53.718;19.946;2023-03-01T19:32:06;101335.60;;;2.90
65765;BMP180;52915;53.718;19.946;2023-03-01T19:37:14;101330.00;;;2.90
65765;BMP180;52915;53.718;19.946;2023-03-01T19:42:22;101329.20;;;2.80
65765;BMP180;52915;53.718;19.946;2023-03-01T19:47:31;101337.40;;;2.90
65765;BMP180;52915;53.718;19.946;2023-03-01T19:52:35;101338.00;;;3.00
65765;BMP180;52915;53.718;19.946;2023-03-01T19:57:40;101332.00;;;3.20
65765;BMP180;52915;53.718;19.946;2023-03-01T20:02:45;101332.20;;;3.30
65765;BMP180;52915;53.718;19.946;2023-03-01T20:14:49;101332.80;;;3.30
65765;BMP180;52915;53.718;19.946;2023-03-01T20:27:53;101322.60;;;3.16
65765;BMP180;52915;53.718;19.946;2023-03-01T20:32:57;101317.80;;;3.00
65765;BMP180;52915;53.718;19.946;2023-03-01T20:45:05;101329.60;;;2.80
65765;BMP180;52915;53.718;19.946;2023-03-01T20:50:10;101323.20;;;2.84
65765;BMP180;52915;53.718;19.946;2023-03-01T20:55:14;101318.60;;;2.90
65765;BMP180;52915;53.718;19.946;2023-03-01T21:00:49;101317.60;;;3.00
65765;BMP180;52915;53.718;19.946;2023-03-01T21:06:00;101313.80;;;3.10
65765;BMP180;52915;53.718;19.946;2023-03-01T21:14:38;101316.20;;;2.64
65765;BMP180;52915;53.718;19.946;2023-03-01T21:19:45;101321.80;;;2.50
65765;BMP180;52915;53.718;19.946;2023-03-01T21:24:55;101322.40;;;2.48
65765;BMP180;52915;53.718;19.946;2023-03-01T21:29:59;101316.80;;;2.40
65765;BMP180;52915;53.718;19.946;2023-03-01T21:35:05;101313.20;;;2.40
65765;BMP180;52915;53.718;19.946;2023-03-01T21:41:07;101317.00;;;2.52
65765;BMP180;52915;53.718;19.946;2023-03-01T21:46:18;101328.00;;;2.70
65765;BMP180;52915;53.718;19.946;2023-03-01T22:05:04;101318.00;;;2.60
65765;BMP180;52915;53.718;19.946;2023-03-01T22:10:55;101309.40;;;2.50
65765;BMP180;52915;53.718;19.946;2023-03-01T22:15:59;101311.40;;;2.50
65765;BMP180;52915;53.718;19.946;2023-03-01T22:21:06;101309.20;;;2.60
65765;BMP180;52915;53.718;19.946;2023-03-01T22:26:30;101311.00;;;2.80
65765;BMP180;52915;53.718;19.946;2023-03-01T22:31:35;101318.80;;;2.90
65765;BMP180;52915;53.718;19.946;2023-03-01T22:36:39;101313.40;;;2.82
65765;BMP180;52915;53.718;19.946;2023-03-01T22:41:46;101314.40;;;2.80
65765;BMP180;52915;53.718;19.946;2023-03-01T22:46:51;101318.20;;;2.80
65765;BMP180;52915;53.718;19.946;2023-03-01T22:51:55;101314.60;;;3.00
65765;BMP180;52915;53.718;19.946;2023-03-01T22:57:02;101319.60;;;3.30
65765;BMP180;52915;53.718;19.946;2023-03-01T23:02:06;101319.00;;;3.50
65765;BMP180;52915;53.718;19.946;2023-03-01T23:07:10;101318.60;;;3.50
65765;BMP180;52915;53.718;19.946;2023-03-01T23:12:14;101319.40;;;3.40
65765;BMP180;52915;53.718;19.946;2023-03-01T23:24:39;101315.60;;;3.20
65765;BMP180;52915;53.718;19.946;2023-03-01T23:29:44;101324.00;;;3.20
65765;BMP180;52915;53.718;19.946;2023-03-01T23:35:38;101332.60;;;3.30
65765;BMP180;52915;53.718;19.946;2023-03-01T23:40:42;101330.00;;;3.50
65765;BMP180;52915;53.718;19.946;2023-03-01T23:45:45;101337.60;;;3.70
65765;BMP180;52915;53.718;19.946;2023-03-01T23:50:49;101332.60;;;3.74
65765;BMP180;52915;53.718;19.946;2023-03-01T23:56:25;101332.20;;;3.68
